createdAt,value
2017-05-20T00:00:40.970Z,69.66
2017-05-20T00:01:41.612Z,70.23
2017-05-20T00:02:42.246Z,69.75
2017-05-20T00:03:42.888Z,68.98
2017-05-20T00:04:43.528Z,70.72
2017-05-20T00:05:44.164Z,69.85
2017-05-20T00:06:44.799Z,69.75
2017-05-20T00:07:45.438Z,69.08
2017-05-20T00:08:46.281Z,68.70
2017-05-20T00:09:46.921Z,70.04
2017-05-20T00:10:47.562Z,69.18
2017-05-20T00:11:48.195Z,69.46
2017-05-20T00:12:48.837Z,68.79
2017-05-20T00:13:49.480Z,69.18
2017-05-20T00:14:50.122Z,68.89
2017-05-20T00:15:50.760Z,69.95
2017-05-20T00:16:51.650Z,69.08
2017-05-20T00:17:52.292Z,69.95
2017-05-20T00:18:52.933Z,68.12
2017-05-20T00:19:53.573Z,69.75
2017-05-20T00:20:54.218Z,69.46
2017-05-20T00:21:54.857Z,69.08
2017-05-20T00:22:55.497Z,68.98
2017-05-20T00:23:56.131Z,68.70
2017-05-20T00:24:56.968Z,69.18
2017-05-20T00:25:57.607Z,69.27
2017-05-20T00:26:58.248Z,68.79
2017-05-20T00:27:58.888Z,69.46
2017-05-20T00:28:59.526Z,69.75
2017-05-20T00:30:00.167Z,69.56
2017-05-20T00:31:00.809Z,68.98
2017-05-20T00:32:01.449Z,69.56
2017-05-20T00:33:02.289Z,69.08
2017-05-20T00:34:02.929Z,69.08
2017-05-20T00:35:03.567Z,69.95
2017-05-20T00:36:04.207Z,70.52
2017-05-20T00:37:04.845Z,69.95
2017-05-20T00:38:05.486Z,69.85
2017-05-20T00:39:06.127Z,69.85
2017-05-20T00:40:06.763Z,69.85
2017-05-20T00:41:07.407Z,69.08
2017-05-20T00:42:08.198Z,69.18
2017-05-20T00:43:08.895Z,70.04
2017-05-20T00:44:09.538Z,70.23
2017-05-20T00:45:10.171Z,69.08
2017-05-20T00:46:10.811Z,69.18
2017-05-20T00:47:11.773Z,69.85
2017-05-20T00:48:12.409Z,70.43
2017-05-20T00:49:13.049Z,70.62
2017-05-20T00:50:13.887Z,70.62
2017-05-20T00:51:14.522Z,69.95
2017-05-20T00:52:15.160Z,69.95
2017-05-20T00:53:15.803Z,69.95
2017-05-20T00:54:16.442Z,70.23
2017-05-20T00:55:17.081Z,70.33
2017-05-20T00:56:17.721Z,70.62
2017-05-20T00:57:18.361Z,69.85
2017-05-20T00:58:19.203Z,70.23
2017-05-20T00:59:19.837Z,69.08
2017-05-20T01:00:20.478Z,69.18
2017-05-20T01:01:21.119Z,69.56
2017-05-20T01:02:21.758Z,69.95
2017-05-20T01:03:22.395Z,69.75
2017-05-20T01:04:23.037Z,69.18
2017-05-20T01:05:23.671Z,69.85
2017-05-20T01:06:24.460Z,69.75
2017-05-20T01:07:25.103Z,69.08
2017-05-20T01:08:25.740Z,69.37
2017-05-20T01:09:26.382Z,69.75
2017-05-20T01:10:27.020Z,69.75
2017-05-20T01:11:27.663Z,70.04
2017-05-20T01:12:28.304Z,69.37
2017-05-20T01:13:28.944Z,69.50
2017-05-20T01:14:29.783Z,70.23
2017-05-20T01:15:30.422Z,69.37
2017-05-20T01:16:31.064Z,70.62
2017-05-20T01:17:31.706Z,69.27
2017-05-20T01:18:32.349Z,69.75
2017-05-20T01:19:32.985Z,69.85
2017-05-20T01:20:33.621Z,69.95
2017-05-20T01:21:34.261Z,69.95
2017-05-20T01:22:34.905Z,69.08
2017-05-20T01:23:35.697Z,69.56
2017-05-20T01:24:36.336Z,69.18
2017-05-20T01:25:36.978Z,70.23
2017-05-20T01:26:37.617Z,70.23
2017-05-20T01:27:38.258Z,70.43
2017-05-20T01:28:38.899Z,70.52
2017-05-20T01:29:39.538Z,70.04
2017-05-20T01:30:40.173Z,69.18
2017-05-20T01:31:41.012Z,69.60
2017-05-20T01:32:41.653Z,69.46
2017-05-20T01:33:42.294Z,69.95
2017-05-20T01:34:42.934Z,69.08
2017-05-20T01:35:43.571Z,70.33
2017-05-20T01:36:44.213Z,70.14
2017-05-20T01:37:44.854Z,70.14
2017-05-20T01:38:45.497Z,70.14
2017-05-20T01:39:46.436Z,70.52
2017-05-20T01:40:47.077Z,70.43
2017-05-20T01:41:47.718Z,69.95
2017-05-20T01:42:48.352Z,69.95
2017-05-20T01:43:48.993Z,70.62
2017-05-20T01:44:49.637Z,69.85
2017-05-20T01:45:50.272Z,69.75
2017-05-20T01:46:50.912Z,69.56
2017-05-20T01:47:51.802Z,70.14
2017-05-20T01:48:52.442Z,70.04
2017-05-20T01:49:53.083Z,70.52
2017-05-20T01:50:53.727Z,70.43
2017-05-20T01:51:54.368Z,69.95
2017-05-20T01:52:55.006Z,70.14
2017-05-20T01:53:55.646Z,69.95
2017-05-20T01:54:56.282Z,70.43
2017-05-20T01:55:56.923Z,70.23
2017-05-20T01:56:57.965Z,70.23
2017-05-20T01:57:58.606Z,70.04
2017-05-20T01:58:59.249Z,70.14
2017-05-20T01:59:59.890Z,70.23
2017-05-20T02:01:00.530Z,69.08
2017-05-20T02:02:01.165Z,69.56
2017-05-20T02:03:01.799Z,70.04
2017-05-20T02:04:02.439Z,70.04
2017-05-20T02:05:03.277Z,70.14
2017-05-20T02:06:03.920Z,70.23
2017-05-20T02:07:04.553Z,70.04
2017-05-20T02:08:05.194Z,70.23
2017-05-20T02:09:05.836Z,70.33
2017-05-20T02:10:06.476Z,70.52
2017-05-20T02:11:07.112Z,70.62
2017-05-20T02:12:07.746Z,69.95
2017-05-20T02:13:08.686Z,69.85
2017-05-20T02:14:09.325Z,70.33
2017-05-20T02:15:09.963Z,70.23
2017-05-20T02:16:10.603Z,70.23
2017-05-20T02:17:11.237Z,70.23
2017-05-20T02:18:11.877Z,70.33
2017-05-20T02:19:12.515Z,70.52
2017-05-20T02:20:13.154Z,70.23
2017-05-20T02:21:13.994Z,70.14
2017-05-20T02:22:14.632Z,69.75
2017-05-20T02:23:15.273Z,70.14
2017-05-20T02:24:15.913Z,70.04
2017-05-20T02:25:16.551Z,69.66
2017-05-20T02:26:17.191Z,69.95
2017-05-20T02:27:17.830Z,70.33
2017-05-20T02:28:18.473Z,70.04
2017-05-20T02:29:19.314Z,70.14
2017-05-20T02:30:19.954Z,70.52
2017-05-20T02:31:20.594Z,70.62
2017-05-20T02:32:21.229Z,70.14
2017-05-20T02:33:21.871Z,70.23
2017-05-20T02:34:22.514Z,70.04
2017-05-20T02:35:23.152Z,70.04
2017-05-20T02:36:23.793Z,69.95
2017-05-20T02:37:24.435Z,70.04
2017-05-20T02:38:25.221Z,70.23
2017-05-20T02:39:25.860Z,70.62
2017-05-20T02:40:26.498Z,70.72
2017-05-20T02:41:27.143Z,70.62
2017-05-20T02:42:27.837Z,70.52
2017-05-20T02:43:28.478Z,70.23
2017-05-20T02:44:29.118Z,70.72
2017-05-20T02:45:29.763Z,70.43
2017-05-20T02:46:30.604Z,70.90
2017-05-20T02:47:31.245Z,70.52
2017-05-20T02:48:31.877Z,70.23
2017-05-20T02:49:32.515Z,70.52
2017-05-20T02:50:33.156Z,70.33
2017-05-20T02:51:33.790Z,70.33
2017-05-20T02:52:34.430Z,70.23
2017-05-20T02:53:35.064Z,70.72
2017-05-20T02:54:35.905Z,70.52
2017-05-20T02:55:36.540Z,70.52
2017-05-20T02:56:37.180Z,71.00
2017-05-20T02:57:37.823Z,70.23
2017-05-20T02:58:38.463Z,70.04
2017-05-20T02:59:39.106Z,70.72
2017-05-20T03:00:39.749Z,70.62
2017-05-20T03:01:40.388Z,70.33
2017-05-20T03:02:41.280Z,70.72
2017-05-20T03:03:41.920Z,70.52
2017-05-20T03:04:42.558Z,70.43
2017-05-20T03:05:43.196Z,70.52
2017-05-20T03:06:43.839Z,70.52
2017-05-20T03:07:44.477Z,70.23
2017-05-20T03:08:45.119Z,70.81
2017-05-20T03:09:45.757Z,70.90
2017-05-20T03:10:46.399Z,70.43
2017-05-20T03:11:47.239Z,70.62
2017-05-20T03:12:47.878Z,70.62
2017-05-20T03:13:48.517Z,70.23
2017-05-20T03:14:49.215Z,70.72
2017-05-20T03:15:49.854Z,70.52
2017-05-20T03:16:50.494Z,70.52
2017-05-20T03:17:51.133Z,70.43
2017-05-20T03:18:51.768Z,70.04
2017-05-20T03:19:52.554Z,70.23
2017-05-20T03:20:53.196Z,70.23
2017-05-20T03:21:53.838Z,70.62
2017-05-20T03:22:54.472Z,70.14
2017-05-20T03:23:55.112Z,70.62
2017-05-20T03:24:55.751Z,70.43
2017-05-20T03:25:56.390Z,70.23
2017-05-20T03:26:57.032Z,70.52
2017-05-20T03:27:57.874Z,70.43
2017-05-20T03:28:58.521Z,70.33
2017-05-20T03:29:59.157Z,70.04
2017-05-20T03:30:59.791Z,70.33
2017-05-20T03:32:00.431Z,70.52
2017-05-20T03:33:01.069Z,70.14
2017-05-20T03:34:01.708Z,70.52
2017-05-20T03:35:02.342Z,69.85
2017-05-20T03:36:03.129Z,70.23
2017-05-20T03:37:03.771Z,70.14
2017-05-20T03:38:04.411Z,70.62
2017-05-20T03:39:05.050Z,70.43
2017-05-20T03:40:05.686Z,70.43
2017-05-20T03:41:06.326Z,70.81
2017-05-20T03:42:06.962Z,70.23
2017-05-20T03:43:07.598Z,70.23
2017-05-20T03:44:08.437Z,70.14
2017-05-20T03:45:09.077Z,70.43
2017-05-20T03:46:09.713Z,70.43
2017-05-20T03:47:10.354Z,70.62
2017-05-20T03:48:10.996Z,70.10
2017-05-20T03:49:11.636Z,70.62
2017-05-20T03:50:12.281Z,70.14
2017-05-20T03:51:12.920Z,70.33
2017-05-20T03:52:13.559Z,69.91
2017-05-20T03:53:14.499Z,70.14
2017-05-20T03:54:15.140Z,70.14
2017-05-20T03:55:15.782Z,69.85
2017-05-20T03:56:16.419Z,70.33
2017-05-20T03:57:17.061Z,70.01
2017-05-20T03:58:17.700Z,70.14
2017-05-20T03:59:18.339Z,69.91
2017-05-20T04:00:18.978Z,69.53
2017-05-20T04:01:19.819Z,69.85
2017-05-20T04:02:20.456Z,70.49
2017-05-20T04:03:21.097Z,70.29
2017-05-20T04:04:21.737Z,70.20
2017-05-20T04:05:22.373Z,70.10
2017-05-20T04:06:23.013Z,69.81
2017-05-20T04:07:23.648Z,70.49
2017-05-20T04:08:24.289Z,70.39
2017-05-20T04:09:25.273Z,70.01
2017-05-20T04:10:25.913Z,70.39
2017-05-20T04:11:26.548Z,70.10
2017-05-20T04:12:27.191Z,70.39
2017-05-20T04:13:27.833Z,70.68
2017-05-20T04:14:28.466Z,70.20
2017-05-20T04:15:29.105Z,70.39
2017-05-20T04:16:29.745Z,70.39
2017-05-20T04:17:30.585Z,70.10
2017-05-20T04:18:31.224Z,70.49
2017-05-20T04:19:31.864Z,70.49
2017-05-20T04:20:32.504Z,70.87
2017-05-20T04:21:33.145Z,70.68
2017-05-20T04:22:33.784Z,70.49
2017-05-20T04:23:34.425Z,70.39
2017-05-20T04:24:35.066Z,70.39
2017-05-20T04:25:35.706Z,70.58
2017-05-20T04:26:36.543Z,70.01
2017-05-20T04:27:37.183Z,70.01
2017-05-20T04:28:37.826Z,70.20
2017-05-20T04:29:38.464Z,70.20
2017-05-20T04:30:39.104Z,70.39
2017-05-20T04:31:39.744Z,70.49
2017-05-20T04:32:40.383Z,70.29
2017-05-20T04:33:41.023Z,70.01
2017-05-20T04:34:41.859Z,70.58
2017-05-20T04:35:42.503Z,70.29
2017-05-20T04:36:43.139Z,70.49
2017-05-20T04:37:43.782Z,70.68
2017-05-20T04:38:44.418Z,70.20
2017-05-20T04:39:45.059Z,70.20
2017-05-20T04:40:45.700Z,70.49
2017-05-20T04:41:46.332Z,70.49
2017-05-20T04:42:47.168Z,70.58
2017-05-20T04:43:47.802Z,70.87
2017-05-20T04:44:48.437Z,70.39
2017-05-20T04:45:49.076Z,70.01
2017-05-20T04:46:49.717Z,70.20
2017-05-20T04:47:50.359Z,70.39
2017-05-20T04:48:50.998Z,70.10
2017-05-20T04:49:51.639Z,70.49
2017-05-20T04:50:52.480Z,70.58
2017-05-20T04:51:53.128Z,70.58
2017-05-20T04:52:53.768Z,69.91
2017-05-20T04:53:54.415Z,70.29
2017-05-20T04:54:55.051Z,70.39
2017-05-20T04:55:55.690Z,70.68
2017-05-20T04:56:56.330Z,70.10
2017-05-20T04:57:56.965Z,70.49
2017-05-20T04:58:57.805Z,70.39
2017-05-20T04:59:58.446Z,69.72
2017-05-20T05:00:59.081Z,69.05
2017-05-20T05:01:59.719Z,69.14
2017-05-20T05:03:00.360Z,70.58
2017-05-20T05:04:01.004Z,70.68
2017-05-20T05:05:01.645Z,70.20
2017-05-20T05:06:02.281Z,70.49
2017-05-20T05:07:02.919Z,70.10
2017-05-20T05:08:03.711Z,70.39
2017-05-20T05:09:04.351Z,70.29
2017-05-20T05:10:04.989Z,70.39
2017-05-20T05:11:05.622Z,70.10
2017-05-20T05:12:06.264Z,70.01
2017-05-20T05:13:06.905Z,70.49
2017-05-20T05:14:07.543Z,70.39
2017-05-20T05:15:08.178Z,70.29
2017-05-20T05:16:09.018Z,70.01
2017-05-20T05:17:09.660Z,70.29
2017-05-20T05:18:10.298Z,70.39
2017-05-20T05:19:10.938Z,70.29
2017-05-20T05:20:11.577Z,71.06
2017-05-20T05:21:12.227Z,70.39
2017-05-20T05:22:12.865Z,70.49
2017-05-20T05:23:13.504Z,70.68
2017-05-20T05:24:14.546Z,70.68
2017-05-20T05:25:15.187Z,70.68
2017-05-20T05:26:15.824Z,70.49
2017-05-20T05:27:16.464Z,70.20
2017-05-20T05:28:17.105Z,71.25
2017-05-20T05:29:17.743Z,71.06
2017-05-20T05:30:18.382Z,70.68
2017-05-20T05:31:19.023Z,70.39
2017-05-20T05:32:19.912Z,70.20
2017-05-20T05:33:20.548Z,70.68
2017-05-20T05:34:21.187Z,70.29
2017-05-20T05:35:21.827Z,69.91
2017-05-20T05:36:22.469Z,70.58
2017-05-20T05:37:23.104Z,70.49
2017-05-20T05:38:23.744Z,70.29
2017-05-20T05:39:24.386Z,70.29
2017-05-20T05:40:25.024Z,70.10
2017-05-20T05:41:25.813Z,70.68
2017-05-20T05:42:26.455Z,70.39
2017-05-20T05:43:27.091Z,70.20
2017-05-20T05:44:27.729Z,70.20
2017-05-20T05:45:28.370Z,70.39
2017-05-20T05:46:29.011Z,70.49
2017-05-20T05:47:29.651Z,70.45
2017-05-20T05:48:30.292Z,70.58
2017-05-20T05:49:31.182Z,70.20
2017-05-20T05:50:31.821Z,70.49
2017-05-20T05:51:32.461Z,70.45
2017-05-20T05:52:33.097Z,70.17
2017-05-20T05:53:33.737Z,70.87
2017-05-20T05:54:34.381Z,70.29
2017-05-20T05:55:35.021Z,70.26
2017-05-20T05:56:35.658Z,70.29
2017-05-20T05:57:36.449Z,70.97
2017-05-20T05:58:37.093Z,70.97
2017-05-20T05:59:37.731Z,71.22
2017-05-20T06:00:38.370Z,70.87
2017-05-20T06:01:39.012Z,70.39
2017-05-20T06:02:39.652Z,70.97
2017-05-20T06:03:40.291Z,70.87
2017-05-20T06:04:40.932Z,70.78
2017-05-20T06:05:41.870Z,70.97
2017-05-20T06:06:42.508Z,70.68
2017-05-20T06:07:43.147Z,70.84
2017-05-20T06:08:43.786Z,70.68
2017-05-20T06:09:44.422Z,70.97
2017-05-20T06:10:45.065Z,70.87
2017-05-20T06:11:45.707Z,70.39
2017-05-20T06:12:46.346Z,71.06
2017-05-20T06:13:47.234Z,71.35
2017-05-20T06:14:47.874Z,71.16
2017-05-20T06:15:48.515Z,71.16
2017-05-20T06:16:49.157Z,71.16
2017-05-20T06:17:49.797Z,71.06
2017-05-20T06:18:50.436Z,71.35
2017-05-20T06:19:51.075Z,71.55
2017-05-20T06:20:51.712Z,71.64
2017-05-20T06:21:52.350Z,71.45
2017-05-20T06:22:53.192Z,71.25
2017-05-20T06:23:53.831Z,71.35
2017-05-20T06:24:54.470Z,71.73
2017-05-20T06:25:55.111Z,71.45
2017-05-20T06:26:55.750Z,71.06
2017-05-20T06:27:56.393Z,71.55
2017-05-20T06:28:57.033Z,71.64
2017-05-20T06:29:57.672Z,71.25
2017-05-20T06:30:58.457Z,71.16
2017-05-20T06:31:59.098Z,71.64
2017-05-20T06:32:59.737Z,71.35
2017-05-20T06:34:00.376Z,71.25
2017-05-20T06:35:01.015Z,71.73
2017-05-20T06:36:01.652Z,71.55
2017-05-20T06:37:02.295Z,71.64
2017-05-20T06:38:02.936Z,71.73
2017-05-20T06:39:03.776Z,71.93
2017-05-20T06:40:04.410Z,71.64
2017-05-20T06:41:05.050Z,71.64
2017-05-20T06:42:05.694Z,71.83
2017-05-20T06:43:06.334Z,71.25
2017-05-20T06:44:06.972Z,71.64
2017-05-20T06:45:07.612Z,71.35
2017-05-20T06:46:08.252Z,71.55
2017-05-20T06:47:09.092Z,71.73
2017-05-20T06:48:09.732Z,71.25
2017-05-20T06:49:10.371Z,71.16
2017-05-20T06:50:11.062Z,71.06
2017-05-20T06:51:11.666Z,71.06
2017-05-20T06:52:12.304Z,71.35
2017-05-20T06:53:12.946Z,71.06
2017-05-20T06:54:13.583Z,71.16
2017-05-20T06:55:14.224Z,70.68
2017-05-20T06:56:15.009Z,71.64
2017-05-20T06:57:15.648Z,70.97
2017-05-20T06:58:16.287Z,70.78
2017-05-20T06:59:16.929Z,70.20
2017-05-20T07:00:17.577Z,71.55
2017-05-20T07:01:18.205Z,71.45
2017-05-20T07:02:18.846Z,70.87
2017-05-20T07:03:19.481Z,71.06
2017-05-20T07:04:20.322Z,70.87
2017-05-20T07:05:20.962Z,70.87
2017-05-20T07:06:21.599Z,70.87
2017-05-20T07:07:22.238Z,70.58
2017-05-20T07:08:22.877Z,70.49
2017-05-20T07:09:23.514Z,70.29
2017-05-20T07:10:24.157Z,71.16
2017-05-20T07:11:24.794Z,70.78
2017-05-20T07:12:25.634Z,70.68
2017-05-20T07:13:26.276Z,70.58
2017-05-20T07:14:26.915Z,70.87
2017-05-20T07:15:27.554Z,71.35
2017-05-20T07:16:28.188Z,71.25
2017-05-20T07:17:28.778Z,71.06
2017-05-20T07:18:29.413Z,70.87
2017-05-20T07:19:30.054Z,71.16
2017-05-20T07:20:30.843Z,71.06
2017-05-20T07:21:31.485Z,70.87
2017-05-20T07:22:32.123Z,70.49
2017-05-20T07:23:32.759Z,71.16
2017-05-20T07:24:33.395Z,70.97
2017-05-20T07:25:34.035Z,71.25
2017-05-20T07:26:34.672Z,71.64
2017-05-20T07:27:35.305Z,71.16
2017-05-20T07:28:36.246Z,71.35
2017-05-20T07:29:36.886Z,71.29
2017-05-20T07:30:37.529Z,71.06
2017-05-20T07:31:38.222Z,71.25
2017-05-20T07:32:38.855Z,71.25
2017-05-20T07:33:39.497Z,71.64
2017-05-20T07:34:40.133Z,71.67
2017-05-20T07:35:40.767Z,71.73
2017-05-20T07:36:41.407Z,71.45
2017-05-20T07:37:42.249Z,71.55
2017-05-20T07:38:42.890Z,71.55
2017-05-20T07:39:43.530Z,72.34
2017-05-20T07:40:44.169Z,72.64
2017-05-20T07:41:44.810Z,72.41
2017-05-20T07:42:45.456Z,72.64
2017-05-20T07:43:46.149Z,72.54
2017-05-20T07:44:46.790Z,72.44
2017-05-20T07:45:47.580Z,72.25
2017-05-20T07:46:48.215Z,72.25
2017-05-20T07:47:48.854Z,72.83
2017-05-20T07:48:49.497Z,72.44
2017-05-20T07:49:50.138Z,72.34
2017-05-20T07:50:50.780Z,71.96
2017-05-20T07:51:51.420Z,72.44
2017-05-20T07:52:52.059Z,72.06
2017-05-20T07:53:52.899Z,72.44
2017-05-20T07:54:53.542Z,72.44
2017-05-20T07:55:54.178Z,72.73
2017-05-20T07:56:54.818Z,72.34
2017-05-20T07:57:55.457Z,72.34
2017-05-20T07:58:56.094Z,72.25
2017-05-20T07:59:56.730Z,72.44
2017-05-20T08:00:57.366Z,72.25
2017-05-20T08:01:58.154Z,72.44
2017-05-20T08:02:58.798Z,71.87
2017-05-20T08:03:59.435Z,72.44
2017-05-20T08:05:00.074Z,72.64
2017-05-20T08:06:00.714Z,72.54
2017-05-20T08:07:01.350Z,72.73
2017-05-20T08:08:01.990Z,71.77
2017-05-20T08:09:02.626Z,71.96
2017-05-20T08:10:03.268Z,72.16
2017-05-20T08:11:04.102Z,72.25
2017-05-20T08:12:04.745Z,72.16
2017-05-20T08:13:05.385Z,72.54
2017-05-20T08:14:06.026Z,72.25
2017-05-20T08:15:06.662Z,71.87
2017-05-20T08:16:07.299Z,71.96
2017-05-20T08:17:07.933Z,72.34
2017-05-20T08:18:08.575Z,71.48
2017-05-20T08:19:09.463Z,72.06
2017-05-20T08:20:10.100Z,71.77
2017-05-20T08:21:10.740Z,71.96
2017-05-20T08:22:11.383Z,72.34
2017-05-20T08:23:12.020Z,71.58
2017-05-20T08:24:12.660Z,70.72
2017-05-20T08:25:13.298Z,71.39
2017-05-20T08:26:13.935Z,71.10
2017-05-20T08:27:14.774Z,71.58
2017-05-20T08:28:15.416Z,71.77
2017-05-20T08:29:16.051Z,70.43
2017-05-20T08:30:16.692Z,69.08
2017-05-20T08:31:17.329Z,68.31
2017-05-20T08:32:17.969Z,68.41
2017-05-20T08:33:18.606Z,67.54
2017-05-20T08:34:19.240Z,68.12
2017-05-20T08:35:20.079Z,68.70
2017-05-20T08:36:20.724Z,68.70
2017-05-20T08:37:21.362Z,68.51
2017-05-20T08:38:21.997Z,67.54
2017-05-20T08:39:22.637Z,66.87
2017-05-20T08:40:23.273Z,66.77
2017-05-20T08:41:23.914Z,66.49
2017-05-20T08:42:24.555Z,65.72
2017-05-20T08:43:25.394Z,66.30
2017-05-20T08:44:26.034Z,65.33
2017-05-20T08:45:26.670Z,65.14
2017-05-20T08:46:27.316Z,65.14
2017-05-20T08:47:27.949Z,64.95
2017-05-20T08:48:28.587Z,64.76
2017-05-20T08:49:29.226Z,64.09
2017-05-20T08:50:29.866Z,64.66
2017-05-20T08:51:30.510Z,64.28
2017-05-20T08:52:31.501Z,65.05
2017-05-20T08:53:32.093Z,65.43
2017-05-20T08:54:32.731Z,65.05
2017-05-20T08:55:33.370Z,65.23
2017-05-20T08:56:34.008Z,64.09
2017-05-20T08:57:34.653Z,64.18
2017-05-20T08:58:35.354Z,63.22
2017-05-20T08:59:35.993Z,62.35
2017-05-20T09:00:36.786Z,61.40
2017-05-20T09:01:37.426Z,62.84
2017-05-20T09:02:38.070Z,62.07
2017-05-20T09:03:39.032Z,61.78
2017-05-20T09:04:39.671Z,64.09
2017-05-20T09:05:40.314Z,64.95
2017-05-20T09:06:40.957Z,63.99
2017-05-20T09:07:41.604Z,65.62
2017-05-20T09:08:42.448Z,64.28
2017-05-20T09:09:43.093Z,63.60
2017-05-20T09:10:43.737Z,64.09
2017-05-20T09:11:44.379Z,64.89
2017-05-20T09:12:45.024Z,64.98
2017-05-20T09:13:45.672Z,65.84
2017-05-20T09:14:46.318Z,65.27
2017-05-20T09:15:46.963Z,64.12
2017-05-20T09:16:47.911Z,64.98
2017-05-20T09:17:48.556Z,65.66
2017-05-20T09:18:49.204Z,64.98
2017-05-20T09:19:49.851Z,62.58
2017-05-20T09:20:50.496Z,60.56
2017-05-20T09:21:51.136Z,60.46
2017-05-20T09:22:51.780Z,61.61
2017-05-20T09:23:52.423Z,61.14
2017-05-20T09:24:53.065Z,57.10
2017-05-20T09:25:53.908Z,58.35
2017-05-20T09:26:54.556Z,57.29
2017-05-20T09:27:55.204Z,56.45
2017-05-20T09:28:56.185Z,56.23
2017-05-20T09:29:56.811Z,57.03
2017-05-20T09:30:57.451Z,56.84
2017-05-20T09:31:58.091Z,57.70
2017-05-20T09:32:58.730Z,57.22
2017-05-20T09:33:59.522Z,56.07
2017-05-20T09:35:00.167Z,55.68
2017-05-20T09:36:00.813Z,56.65
2017-05-20T09:37:01.452Z,56.65
2017-05-20T09:38:02.096Z,57.22
2017-05-20T09:39:02.742Z,57.22
2017-05-20T09:40:03.383Z,57.70
2017-05-20T09:41:04.032Z,57.51
2017-05-20T09:42:04.871Z,60.81
2017-05-20T09:43:05.515Z,61.29
2017-05-20T09:44:06.210Z,61.29
2017-05-20T09:45:06.852Z,61.29
2017-05-20T09:46:07.498Z,61.49
2017-05-20T09:47:08.138Z,61.10
2017-05-20T09:48:08.779Z,60.81
2017-05-20T09:49:09.423Z,60.62
2017-05-20T09:50:10.215Z,59.66
2017-05-20T09:51:10.862Z,57.15
2017-05-20T09:52:11.504Z,55.90
2017-05-20T09:53:12.151Z,55.81
2017-05-20T09:54:12.794Z,54.94
2017-05-20T09:55:13.446Z,54.94
2017-05-20T09:56:14.086Z,55.43
2017-05-20T09:57:14.730Z,57.25
2017-05-20T09:58:15.624Z,57.95
2017-05-20T09:59:16.269Z,58.92
2017-05-20T10:00:16.915Z,59.30
2017-05-20T10:01:17.564Z,60.07
2017-05-20T10:02:18.209Z,58.92
2017-05-20T10:03:18.857Z,59.97
2017-05-20T10:04:19.502Z,56.90
2017-05-20T10:05:20.148Z,55.55
2017-05-20T10:06:20.796Z,57.76
2017-05-20T10:07:21.588Z,59.01
2017-05-20T10:08:22.234Z,57.86
2017-05-20T10:09:22.880Z,57.18
2017-05-20T10:10:23.525Z,57.18
2017-05-20T10:11:24.173Z,58.15
2017-05-20T10:12:24.813Z,58.72
2017-05-20T10:13:25.459Z,58.82
2017-05-20T10:14:26.099Z,58.24
2017-05-20T10:15:26.953Z,58.82
2017-05-20T10:16:27.594Z,59.49
2017-05-20T10:17:28.237Z,60.10
2017-05-20T10:18:28.879Z,59.97
2017-05-20T10:19:29.519Z,60.17
2017-05-20T10:20:30.166Z,60.46
2017-05-20T10:21:30.814Z,60.55
2017-05-20T10:22:31.463Z,60.84
2017-05-20T10:23:32.262Z,60.75
2017-05-20T10:24:32.900Z,61.22
2017-05-20T10:25:33.547Z,61.32
2017-05-20T10:26:34.193Z,60.84
2017-05-20T10:27:34.838Z,60.94
2017-05-20T10:28:35.479Z,60.55
2017-05-20T10:29:36.123Z,60.84
2017-05-20T10:30:36.771Z,60.55
2017-05-20T10:31:37.614Z,60.84
2017-05-20T10:32:38.260Z,60.75
2017-05-20T10:33:38.905Z,60.94
2017-05-20T10:34:39.552Z,61.13
2017-05-20T10:35:40.197Z,61.22
2017-05-20T10:36:40.841Z,61.52
2017-05-20T10:37:41.490Z,60.94
2017-05-20T10:38:42.138Z,61.04
2017-05-20T10:39:42.783Z,60.94
2017-05-20T10:40:43.630Z,60.87
2017-05-20T10:41:44.279Z,60.94
2017-05-20T10:42:44.929Z,60.84
2017-05-20T10:43:45.588Z,60.10
2017-05-20T10:44:46.236Z,60.20
2017-05-20T10:45:46.882Z,59.43
2017-05-20T10:46:47.535Z,58.85
2017-05-20T10:47:48.503Z,59.91
2017-05-20T10:48:49.296Z,59.81
2017-05-20T10:49:49.947Z,59.94
2017-05-20T10:50:50.597Z,59.91
2017-05-20T10:51:51.244Z,59.07
2017-05-20T10:52:51.888Z,59.55
2017-05-20T10:53:52.537Z,59.45
2017-05-20T10:54:53.187Z,59.55
2017-05-20T10:55:53.835Z,59.65
2017-05-20T10:56:54.683Z,59.84
2017-05-20T10:57:55.333Z,60.03
2017-05-20T10:58:55.976Z,59.75
2017-05-20T10:59:56.626Z,58.78
2017-05-20T11:00:57.276Z,57.85
2017-05-20T11:01:57.924Z,57.75
2017-05-20T11:02:58.573Z,56.91
2017-05-20T11:03:59.226Z,56.62
2017-05-20T11:05:00.076Z,55.66
2017-05-20T11:06:00.729Z,55.46
2017-05-20T11:07:01.373Z,55.66
2017-05-20T11:08:02.024Z,55.27
2017-05-20T11:09:02.678Z,55.36
2017-05-20T11:10:03.328Z,56.04
2017-05-20T11:11:03.979Z,56.33
2017-05-20T11:12:04.631Z,56.62
2017-05-20T11:13:05.432Z,57.20
2017-05-20T11:14:06.083Z,55.56
2017-05-20T11:15:06.736Z,55.85
2017-05-20T11:16:07.385Z,55.66
2017-05-20T11:17:08.037Z,54.50
2017-05-20T11:18:08.689Z,55.18
2017-05-20T11:19:09.341Z,54.88
2017-05-20T11:20:09.988Z,54.79
2017-05-20T11:21:10.643Z,55.27
2017-05-20T11:22:11.494Z,55.46
2017-05-20T11:23:12.154Z,55.76
2017-05-20T11:24:12.799Z,55.66
2017-05-20T11:25:13.450Z,55.56
2017-05-20T11:26:14.102Z,55.18
2017-05-20T11:27:14.753Z,55.56
2017-05-20T11:28:15.404Z,55.56
2017-05-20T11:29:16.056Z,55.46
2017-05-20T11:30:21.912Z,55.76
2017-05-20T11:31:22.567Z,55.85
2017-05-20T11:32:23.221Z,55.76
2017-05-20T11:33:23.928Z,55.76
2017-05-20T11:34:24.578Z,55.56
2017-05-20T11:35:25.232Z,55.76
2017-05-20T11:36:25.883Z,55.46
2017-05-20T11:37:26.532Z,55.27
2017-05-20T11:38:27.429Z,55.46
2017-05-20T11:39:28.086Z,55.46
2017-05-20T11:40:28.738Z,55.85
2017-05-20T11:41:29.392Z,55.56
2017-05-20T11:42:30.046Z,55.46
2017-05-20T11:43:30.699Z,55.66
2017-05-20T11:44:31.349Z,55.27
2017-05-20T11:45:32.004Z,55.56
2017-05-20T11:46:32.905Z,55.85
2017-05-20T11:47:33.559Z,55.10
2017-05-20T11:48:34.214Z,54.82
2017-05-20T11:49:34.871Z,54.82
2017-05-20T11:50:35.529Z,54.91
2017-05-20T11:51:36.183Z,54.91
2017-05-20T11:52:36.841Z,55.20
2017-05-20T11:53:37.493Z,55.20
2017-05-20T11:54:38.543Z,55.68
2017-05-20T11:55:39.192Z,55.68
2017-05-20T11:56:39.846Z,55.40
2017-05-20T11:57:40.501Z,55.10
2017-05-20T11:58:41.161Z,54.82
2017-05-20T11:59:41.812Z,54.62
2017-05-20T12:00:42.464Z,54.36
2017-05-20T12:01:43.119Z,54.17
2017-05-20T12:02:43.777Z,53.97
2017-05-20T12:03:44.629Z,53.61
2017-05-20T12:04:45.287Z,53.13
2017-05-20T12:05:45.942Z,52.45
2017-05-20T12:06:46.547Z,52.65
2017-05-20T12:07:47.205Z,51.78
2017-05-20T12:08:47.862Z,51.87
2017-05-20T12:09:48.517Z,51.97
2017-05-20T12:10:49.174Z,51.23
2017-05-20T12:11:50.130Z,51.13
2017-05-20T12:12:50.786Z,51.23
2017-05-20T12:13:51.441Z,50.55
2017-05-20T12:14:52.098Z,49.60
2017-05-20T12:15:52.754Z,49.90
2017-05-20T12:16:53.405Z,49.51
2017-05-20T12:17:54.062Z,49.60
2017-05-20T12:18:54.716Z,48.93
2017-05-20T12:19:55.572Z,48.83
2017-05-20T12:20:56.233Z,48.95
2017-05-20T12:21:56.942Z,48.47
2017-05-20T12:22:57.594Z,48.27
2017-05-20T12:23:58.253Z,47.89
2017-05-20T12:24:58.907Z,48.08
2017-05-20T12:25:59.564Z,47.79
2017-05-20T12:27:00.228Z,47.62
2017-05-20T12:28:01.088Z,46.94
2017-05-20T12:29:01.746Z,46.87
2017-05-20T12:30:02.404Z,46.77
2017-05-20T12:31:03.057Z,46.09
2017-05-20T12:32:03.714Z,46.48
2017-05-20T12:33:04.370Z,46.19
2017-05-20T12:34:05.021Z,46.58
2017-05-20T12:35:05.676Z,45.90
2017-05-20T12:36:06.331Z,46.19
2017-05-20T12:37:07.187Z,46.00
2017-05-20T12:38:07.844Z,45.90
2017-05-20T12:39:08.500Z,45.90
2017-05-20T12:40:09.162Z,46.19
2017-05-20T12:41:09.811Z,45.32
2017-05-20T12:42:10.466Z,45.42
2017-05-20T12:43:11.122Z,45.61
2017-05-20T12:44:11.775Z,45.51
2017-05-20T12:45:12.583Z,45.42
2017-05-20T12:46:13.238Z,45.42
2017-05-20T12:47:13.846Z,45.42
2017-05-20T12:48:14.498Z,45.81
2017-05-20T12:49:15.156Z,45.22
2017-05-20T12:50:15.813Z,44.74
2017-05-20T12:51:16.472Z,44.67
2017-05-20T12:52:17.129Z,44.37
2017-05-20T12:53:17.985Z,44.27
2017-05-20T12:54:18.642Z,44.09
2017-05-20T12:55:19.295Z,43.99
2017-05-20T12:56:19.954Z,44.18
2017-05-20T12:57:20.610Z,43.99
2017-05-20T12:58:21.270Z,43.60
2017-05-20T12:59:21.925Z,43.02
2017-05-20T13:00:22.582Z,42.07
2017-05-20T13:01:23.438Z,42.26